createdAt,value
2023-07-02T00:02:17.109Z,21.29
2023-07-02T00:04:44.307Z,21.27
2023-07-02T00:07:10.869Z,21.29
2023-07-02T00:09:38.146Z,21.29
2023-07-02T00:12:04.941Z,21.18
2023-07-02T00:14:31.451Z,21.19
2023-07-02T00:16:58.199Z,21.19
2023-07-02T00:19:24.657Z,21.19
2023-07-02T00:21:51.193Z,21.26
2023-07-02T00:24:17.629Z,21.22
2023-07-02T00:26:44.130Z,21.26
2023-07-02T00:29:10.563Z,21.24
2023-07-02T00:31:37.186Z,21.16
2023-07-02T00:34:05.133Z,21.06
2023-07-02T00:36:32.730Z,20.96
2023-07-02T00:38:59.842Z,20.93
2023-07-02T00:41:27.808Z,20.95
2023-07-02T00:43:55.633Z,20.93
2023-07-02T00:46:26.230Z,20.94
2023-07-02T00:48:54.200Z,20.88
2023-07-02T00:51:25.404Z,20.81
2023-07-02T00:53:53.827Z,20.75
2023-07-02T00:56:20.416Z,20.83
2023-07-02T00:58:49.356Z,20.90
2023-07-02T01:01:17.667Z,20.87
2023-07-02T01:04:01.681Z,20.86
2023-07-02T01:06:33.848Z,20.84
2023-07-02T01:09:03.003Z,20.91
2023-07-02T01:11:32.512Z,20.97
2023-07-02T01:14:06.537Z,20.91
2023-07-02T01:16:35.154Z,20.87
2023-07-02T01:19:05.887Z,20.73
2023-07-02T01:21:33.523Z,20.67
2023-07-02T01:24:03.710Z,20.70
2023-07-02T01:26:34.930Z,20.81
2023-07-02T01:29:22.194Z,20.77
2023-07-02T01:31:49.115Z,20.82
2023-07-02T01:34:16.080Z,20.92
2023-07-02T01:36:42.898Z,20.82
2023-07-02T01:39:09.456Z,20.66
2023-07-02T01:41:50.506Z,20.38
2023-07-02T01:44:17.087Z,20.45
2023-07-02T01:46:44.418Z,20.49
2023-07-02T01:49:10.872Z,20.58
2023-07-02T01:51:37.321Z,20.58
2023-07-02T01:54:03.959Z,20.60
2023-07-02T01:56:30.531Z,20.62
2023-07-02T01:58:56.995Z,20.60
2023-07-02T02:01:23.532Z,20.61
2023-07-02T02:03:50.068Z,20.63
2023-07-02T02:06:16.565Z,20.60
2023-07-02T02:08:43.045Z,20.62
2023-07-02T02:11:09.544Z,20.58
2023-07-02T02:13:36.131Z,20.46
2023-07-02T02:16:02.671Z,20.43
2023-07-02T02:18:29.194Z,20.36
2023-07-02T02:20:55.662Z,20.43
2023-07-02T02:23:22.187Z,20.45
2023-07-02T02:25:48.706Z,20.50
2023-07-02T02:28:15.191Z,20.58
2023-07-02T02:30:41.640Z,20.53
2023-07-02T02:33:08.091Z,20.55
2023-07-02T02:35:34.537Z,20.57
2023-07-02T02:38:04.591Z,20.55
2023-07-02T02:40:31.293Z,20.46
2023-07-02T02:42:57.776Z,20.47
2023-07-02T02:45:24.369Z,20.50
2023-07-02T02:47:50.870Z,20.51
2023-07-02T02:50:17.425Z,20.56
2023-07-02T02:52:44.170Z,20.58
2023-07-02T02:55:11.964Z,20.59
2023-07-02T02:57:38.483Z,20.52
2023-07-02T03:00:06.113Z,20.32
2023-07-02T03:02:32.771Z,20.30
2023-07-02T03:05:03.315Z,20.31
2023-07-02T03:07:30.328Z,20.38
2023-07-02T03:09:56.771Z,20.35
2023-07-02T03:12:25.809Z,20.26
2023-07-02T03:14:55.538Z,20.27
2023-07-02T03:17:22.928Z,20.29
2023-07-02T03:19:49.816Z,20.37
2023-07-02T03:22:16.597Z,20.35
2023-07-02T03:24:43.043Z,20.27
2023-07-02T03:27:09.614Z,20.29
2023-07-02T03:29:36.819Z,20.34
2023-07-02T03:32:03.356Z,20.31
2023-07-02T03:34:29.803Z,20.30
2023-07-02T03:36:56.244Z,20.29
2023-07-02T03:39:22.837Z,20.24
2023-07-02T03:41:49.343Z,20.19
2023-07-02T03:44:15.913Z,20.32
2023-07-02T03:46:42.471Z,20.42
2023-07-02T03:49:09.146Z,20.42
2023-07-02T03:51:35.668Z,20.45
2023-07-02T03:54:02.288Z,20.42
2023-07-02T03:56:28.756Z,20.41
2023-07-02T03:58:55.278Z,20.44
2023-07-02T04:01:21.795Z,20.47
2023-07-02T04:03:53.403Z,20.45
2023-07-02T04:06:20.285Z,20.41
2023-07-02T04:08:47.034Z,20.44
2023-07-02T04:11:13.770Z,20.46
2023-07-02T04:13:41.017Z,20.24
2023-07-02T04:16:08.023Z,20.16
2023-07-02T04:18:34.630Z,20.24
2023-07-02T04:21:02.612Z,20.30
2023-07-02T04:23:29.219Z,20.37
2023-07-02T04:26:04.082Z,20.47
2023-07-02T04:28:42.742Z,20.52
2023-07-02T04:31:09.252Z,20.55
2023-07-02T04:33:37.186Z,20.50
2023-07-02T04:36:04.869Z,20.53
2023-07-02T04:38:31.530Z,20.61
2023-07-02T04:41:06.223Z,20.65
2023-07-02T04:43:34.222Z,20.58
2023-07-02T04:46:01.777Z,20.61
2023-07-02T04:48:28.876Z,20.53
2023-07-02T04:50:55.407Z,20.55
2023-07-02T04:53:21.852Z,20.63
2023-07-02T04:55:48.322Z,20.77
2023-07-02T04:58:14.852Z,20.91
2023-07-02T05:00:41.309Z,20.97
2023-07-02T05:03:10.679Z,20.90
2023-07-02T05:05:37.176Z,20.93
2023-07-02T05:08:05.876Z,20.89
2023-07-02T05:10:32.673Z,20.90
2023-07-02T05:12:59.138Z,21.01
2023-07-02T05:15:27.846Z,21.10
2023-07-02T05:17:54.735Z,21.23
2023-07-02T05:20:33.394Z,21.25
2023-07-02T05:22:59.947Z,21.09
2023-07-02T05:25:26.423Z,21.09
2023-07-02T05:27:54.056Z,21.13
2023-07-02T05:30:20.740Z,21.31
2023-07-02T05:32:47.203Z,21.43
2023-07-02T05:35:13.840Z,21.47
2023-07-02T05:37:43.145Z,21.46
2023-07-02T05:40:09.966Z,21.41
2023-07-02T05:42:45.867Z,21.47
2023-07-02T05:45:13.201Z,21.55
2023-07-02T05:47:39.990Z,21.73
2023-07-02T05:50:08.425Z,21.65
2023-07-02T05:52:37.188Z,21.70
2023-07-02T05:55:04.412Z,21.74
2023-07-02T05:57:41.080Z,21.68
2023-07-02T06:00:17.085Z,21.76
2023-07-02T06:02:44.055Z,21.86
2023-07-02T06:05:13.966Z,21.98
2023-07-02T06:07:40.492Z,21.89
2023-07-02T06:10:12.216Z,21.78
2023-07-02T06:12:39.553Z,21.63
2023-07-02T06:15:06.543Z,21.76
2023-07-02T06:17:35.347Z,21.92
2023-07-02T06:20:05.837Z,22.05
2023-07-02T06:22:32.525Z,22.05
2023-07-02T06:25:05.999Z,22.16
2023-07-02T06:27:32.961Z,22.23
2023-07-02T06:29:59.518Z,22.29
2023-07-02T06:32:33.850Z,22.25
2023-07-02T06:35:00.744Z,22.18
2023-07-02T06:37:33.791Z,22.20
2023-07-02T06:40:00.775Z,22.26
2023-07-02T06:42:39.178Z,22.38
2023-07-02T06:45:07.593Z,22.43
2023-07-02T06:47:43.499Z,22.42
2023-07-02T06:50:10.088Z,22.43
2023-07-02T06:52:37.541Z,22.49
2023-07-02T06:55:05.569Z,22.51
2023-07-02T06:57:32.029Z,22.64
2023-07-02T07:00:00.476Z,22.65
2023-07-02T07:02:28.199Z,22.62
2023-07-02T07:04:54.769Z,22.58
2023-07-02T07:07:21.569Z,22.63
2023-07-02T07:09:48.104Z,22.69
2023-07-02T07:12:14.533Z,22.74
2023-07-02T07:14:41.001Z,22.88
2023-07-02T07:17:07.646Z,22.86
2023-07-02T07:19:34.129Z,22.91
2023-07-02T07:22:00.704Z,22.84
2023-07-02T07:24:27.169Z,22.76
2023-07-02T07:26:53.653Z,22.91
2023-07-02T07:29:20.228Z,23.09
2023-07-02T07:31:47.481Z,23.18
2023-07-02T07:34:14.067Z,23.12
2023-07-02T07:36:40.597Z,23.14
2023-07-02T07:39:07.135Z,23.23
2023-07-02T07:41:33.798Z,23.06
2023-07-02T07:44:01.139Z,23.07
2023-07-02T07:46:27.601Z,23.30
2023-07-02T07:48:55.093Z,23.46
2023-07-02T07:51:21.570Z,23.53
2023-07-02T07:53:48.014Z,23.53
2023-07-02T07:56:14.464Z,23.55
2023-07-02T07:58:40.972Z,23.33
2023-07-02T08:01:07.522Z,23.35
2023-07-02T08:03:34.017Z,23.61
2023-07-02T08:06:00.542Z,23.70
2023-07-02T08:08:27.038Z,23.87
2023-07-02T08:10:53.603Z,23.76
2023-07-02T08:13:20.071Z,23.59
2023-07-02T08:15:46.553Z,23.74
2023-07-02T08:18:14.349Z,23.80
2023-07-02T08:20:40.908Z,23.88
2023-07-02T08:23:07.393Z,24.13
2023-07-02T08:25:33.910Z,24.08
2023-07-02T08:28:00.495Z,24.07
2023-07-02T08:30:27.094Z,24.08
2023-07-02T08:32:55.363Z,24.05
2023-07-02T08:35:22.056Z,24.22
2023-07-02T08:37:49.781Z,24.53
2023-07-02T08:40:20.273Z,24.54
2023-07-02T08:42:50.852Z,24.75
2023-07-02T08:45:17.938Z,24.96
2023-07-02T08:47:48.900Z,24.91
2023-07-02T08:50:15.484Z,24.94
2023-07-02T08:52:43.908Z,25.21
2023-07-02T08:55:10.482Z,25.06
2023-07-02T08:57:37.384Z,24.81
2023-07-02T09:00:11.302Z,24.75
2023-07-02T09:02:37.958Z,24.69
2023-07-02T09:05:05.574Z,24.77
2023-07-02T09:07:32.207Z,24.98
2023-07-02T09:09:58.820Z,25.27
2023-07-02T09:12:30.691Z,25.20
2023-07-02T09:15:07.655Z,25.34
2023-07-02T09:17:38.030Z,25.49
2023-07-02T09:20:09.106Z,25.23
2023-07-02T09:22:36.517Z,25.07
2023-07-02T09:25:03.866Z,25.01
2023-07-02T09:27:37.592Z,24.90
2023-07-02T09:30:16.542Z,24.86
2023-07-02T09:32:44.677Z,24.94
2023-07-02T09:35:11.709Z,25.02
2023-07-02T09:37:40.277Z,25.06
2023-07-02T09:40:10.152Z,25.08
2023-07-02T09:42:39.533Z,25.24
2023-07-02T09:45:09.557Z,25.22
2023-07-02T09:47:46.338Z,25.63
2023-07-02T09:50:15.785Z,25.98
2023-07-02T09:52:42.960Z,25.97
2023-07-02T09:55:12.229Z,26.19
2023-07-02T09:57:40.710Z,26.18
2023-07-02T10:00:08.923Z,25.92
2023-07-02T10:02:37.107Z,25.84
2023-07-02T10:05:04.098Z,25.73
2023-07-02T10:07:33.311Z,25.77
2023-07-02T10:09:59.987Z,25.94
2023-07-02T10:12:27.717Z,25.87
2023-07-02T10:14:56.213Z,25.69
2023-07-02T10:17:30.267Z,25.60
2023-07-02T10:19:58.786Z,25.65
2023-07-02T10:22:25.358Z,25.64
2023-07-02T10:24:58.522Z,25.59
2023-07-02T10:27:42.021Z,25.96
2023-07-02T10:30:10.751Z,26.27
2023-07-02T10:32:39.585Z,26.34
2023-07-02T10:35:19.551Z,26.42
2023-07-02T10:37:46.722Z,26.61
2023-07-02T10:40:14.224Z,26.50
2023-07-02T10:42:51.818Z,26.39
2023-07-02T10:45:19.591Z,26.37
2023-07-02T10:47:47.205Z,26.39
2023-07-02T10:50:18.152Z,26.59
2023-07-02T10:52:44.780Z,26.46
2023-07-02T10:55:11.295Z,26.46
2023-07-02T10:57:37.721Z,26.74
2023-07-02T11:00:09.144Z,27.14
2023-07-02T11:02:37.540Z,27.19
2023-07-02T11:05:08.548Z,27.24
2023-07-02T11:07:38.161Z,27.29
2023-07-02T11:10:05.637Z,27.09
2023-07-02T11:12:35.148Z,27.41
2023-07-02T11:15:21.600Z,27.57
2023-07-02T11:17:48.268Z,28.18
2023-07-02T11:20:19.894Z,28.11
2023-07-02T11:22:49.240Z,28.32
2023-07-02T11:25:23.247Z,28.45
2023-07-02T11:27:49.892Z,28.57
2023-07-02T11:30:17.109Z,28.72
2023-07-02T11:32:52.334Z,29.01
2023-07-02T11:35:20.281Z,28.87
2023-07-02T11:37:47.522Z,28.90
2023-07-02T11:40:20.243Z,28.52
2023-07-02T11:42:49.105Z,28.03
2023-07-02T11:45:15.712Z,27.66
2023-07-02T11:47:42.382Z,27.50
2023-07-02T11:50:24.736Z,27.46
2023-07-02T11:52:56.164Z,27.36
2023-07-02T11:55:23.100Z,27.37
2023-07-02T11:57:50.857Z,27.79
2023-07-02T12:00:17.777Z,28.08
2023-07-02T12:02:44.414Z,28.14
2023-07-02T12:05:13.069Z,28.45
2023-07-02T12:07:40.065Z,28.57
2023-07-02T12:10:08.469Z,28.56
2023-07-02T12:12:36.792Z,28.78
2023-07-02T12:15:03.880Z,28.69
2023-07-02T12:17:36.939Z,28.42
2023-07-02T12:20:04.249Z,28.09
2023-07-02T12:22:30.787Z,27.90
2023-07-02T12:24:58.565Z,27.86
2023-07-02T12:27:28.192Z,28.08
2023-07-02T12:29:54.842Z,28.24
2023-07-02T12:32:21.913Z,28.31
2023-07-02T12:34:51.302Z,28.36
2023-07-02T12:37:20.034Z,28.53
2023-07-02T12:39:46.910Z,28.28
2023-07-02T12:42:13.765Z,28.14
2023-07-02T12:44:50.084Z,28.19
2023-07-02T12:47:16.728Z,28.36
2023-07-02T12:49:43.187Z,28.38
2023-07-02T12:52:09.672Z,28.39
2023-07-02T12:54:36.200Z,28.57
2023-07-02T12:57:11.776Z,28.83
2023-07-02T12:59:38.551Z,28.96
2023-07-02T13:02:22.644Z,28.94
2023-07-02T13:04:49.889Z,28.99
2023-07-02T13:07:17.154Z,29.17
2023-07-02T13:09:43.891Z,29.03
2023-07-02T13:12:12.242Z,28.93
2023-07-02T13:14:39.784Z,28.75
2023-07-02T13:17:06.608Z,28.84
2023-07-02T13:19:39.510Z,28.90
2023-07-02T13:22:06.440Z,28.91
2023-07-02T13:24:38.970Z,28.81
2023-07-02T13:27:10.214Z,28.76
2023-07-02T13:29:36.979Z,28.58
2023-07-02T13:32:15.279Z,28.68
2023-07-02T13:34:41.745Z,28.75
2023-07-02T13:37:09.304Z,28.91
2023-07-02T13:39:35.813Z,28.88
2023-07-02T13:42:02.545Z,28.95
2023-07-02T13:44:29.242Z,29.02
2023-07-02T13:46:56.562Z,28.91
2023-07-02T13:49:23.312Z,28.89
2023-07-02T13:51:53.036Z,28.70
2023-07-02T13:54:20.068Z,28.57
2023-07-02T13:56:50.236Z,28.73
2023-07-02T13:59:18.689Z,28.88
2023-07-02T14:01:52.453Z,28.91
2023-07-02T14:04:20.684Z,28.96
2023-07-02T14:06:47.460Z,28.91
2023-07-02T14:09:14.379Z,28.87
2023-07-02T14:11:42.649Z,28.86
2023-07-02T14:14:10.052Z,28.84
2023-07-02T14:16:36.893Z,28.82
2023-07-02T14:19:09.623Z,28.94
2023-07-02T14:21:36.480Z,28.88
2023-07-02T14:24:03.256Z,28.72
2023-07-02T14:26:31.099Z,28.63
2023-07-02T14:28:59.258Z,28.81
2023-07-02T14:31:25.882Z,28.88
2023-07-02T14:33:52.432Z,28.83
2023-07-02T14:36:19.277Z,28.84
2023-07-02T14:38:46.019Z,28.98
2023-07-02T14:41:12.518Z,28.97
2023-07-02T14:43:39.232Z,28.87
2023-07-02T14:46:05.864Z,28.86
2023-07-02T14:48:32.764Z,28.97
2023-07-02T14:51:01.028Z,29.01
2023-07-02T14:53:28.652Z,29.02
2023-07-02T14:56:03.395Z,29.07
2023-07-02T14:58:32.596Z,29.09
2023-07-02T15:01:00.044Z,29.17
2023-07-02T15:03:28.162Z,29.15
2023-07-02T15:05:55.490Z,29.17
2023-07-02T15:08:22.567Z,29.11
2023-07-02T15:10:55.822Z,29.01
2023-07-02T15:13:24.916Z,29.01
2023-07-02T15:15:52.410Z,28.86
2023-07-02T15:18:21.123Z,28.83
2023-07-02T15:20:51.853Z,28.80
2023-07-02T15:23:18.367Z,28.77
2023-07-02T15:25:51.863Z,28.78
2023-07-02T15:28:18.862Z,28.88
2023-07-02T15:30:45.396Z,29.07
2023-07-02T15:33:11.999Z,28.96
2023-07-02T15:35:38.455Z,29.08
2023-07-02T15:38:05.053Z,29.21
2023-07-02T15:40:32.230Z,29.27
2023-07-02T15:42:58.778Z,29.17
2023-07-02T15:45:26.455Z,29.10
2023-07-02T15:47:53.116Z,29.01
2023-07-02T15:50:19.700Z,28.99
2023-07-02T15:52:46.224Z,29.06
2023-07-02T15:55:12.812Z,29.09
2023-07-02T15:57:39.265Z,29.21
2023-07-02T16:00:07.076Z,29.24
2023-07-02T16:02:36.871Z,29.18
2023-07-02T16:05:10.595Z,29.14
2023-07-02T16:07:37.288Z,29.08
2023-07-02T16:10:06.118Z,29.00
2023-07-02T16:12:41.452Z,28.96
2023-07-02T16:15:08.383Z,29.06
2023-07-02T16:17:35.083Z,29.08
2023-07-02T16:20:01.887Z,29.03
2023-07-02T16:22:31.342Z,29.11
2023-07-02T16:24:57.951Z,29.04
2023-07-02T16:27:24.465Z,29.09
2023-07-02T16:29:57.156Z,29.14
2023-07-02T16:32:30.448Z,29.11
2023-07-02T16:35:04.368Z,29.06
2023-07-02T16:37:30.909Z,29.02
2023-07-02T16:39:57.427Z,29.04
2023-07-02T16:42:24.060Z,29.05
2023-07-02T16:44:50.682Z,29.05
2023-07-02T16:47:20.091Z,28.99
2023-07-02T16:49:47.648Z,29.02
2023-07-02T16:52:14.195Z,28.98
2023-07-02T16:54:40.749Z,28.93
2023-07-02T16:57:07.517Z,28.95
2023-07-02T16:59:38.490Z,28.93
2023-07-02T17:02:10.098Z,28.90
2023-07-02T17:04:36.689Z,28.89
2023-07-02T17:07:03.384Z,28.84
2023-07-02T17:09:35.511Z,28.80
2023-07-02T17:12:04.385Z,28.67
2023-07-02T17:14:34.299Z,28.63
2023-07-02T17:17:03.498Z,28.58
2023-07-02T17:19:36.014Z,28.64
2023-07-02T17:22:05.163Z,28.78
2023-07-02T17:24:34.570Z,28.79
2023-07-02T17:27:02.353Z,28.77
2023-07-02T17:29:32.360Z,28.77
2023-07-02T17:32:01.827Z,28.80
2023-07-02T17:34:30.103Z,28.75
2023-07-02T17:36:58.938Z,28.74
2023-07-02T17:39:27.807Z,28.72
2023-07-02T17:41:55.740Z,28.66
2023-07-02T17:44:28.081Z,28.61
2023-07-02T17:47:01.273Z,28.54
2023-07-02T17:49:29.177Z,28.51
2023-07-02T17:51:56.066Z,28.45
2023-07-02T17:54:23.633Z,28.43
2023-07-02T17:56:51.869Z,28.47
2023-07-02T17:59:19.532Z,28.54
2023-07-02T18:01:51.324Z,28.50
2023-07-02T18:04:18.989Z,28.46
2023-07-02T18:06:47.061Z,28.46
2023-07-02T18:09:16.630Z,28.43
2023-07-02T18:11:43.491Z,28.36
2023-07-02T18:14:10.293Z,28.36
2023-07-02T18:16:36.970Z,28.36
2023-07-02T18:19:03.600Z,28.34
2023-07-02T18:21:30.974Z,28.31
2023-07-02T18:23:59.408Z,28.27
2023-07-02T18:26:26.052Z,28.26
2023-07-02T18:28:52.638Z,28.24
2023-07-02T18:31:20.053Z,28.16
2023-07-02T18:33:46.722Z,28.06
2023-07-02T18:36:16.079Z,27.99
2023-07-02T18:38:42.975Z,27.89
2023-07-02T18:41:11.456Z,27.84
2023-07-02T18:43:38.416Z,27.83
2023-07-02T18:46:06.341Z,27.82
2023-07-02T18:48:33.603Z,27.85
2023-07-02T18:51:00.072Z,27.84
2023-07-02T18:53:26.599Z,27.74
2023-07-02T18:56:01.335Z,27.66
2023-07-02T18:58:28.916Z,27.50
2023-07-02T19:00:55.608Z,27.41
2023-07-02T19:03:22.566Z,27.32
2023-07-02T19:05:50.843Z,27.30
2023-07-02T19:08:19.273Z,27.25
2023-07-02T19:10:46.717Z,27.23
2023-07-02T19:13:14.626Z,27.24
2023-07-02T19:15:41.332Z,27.20
2023-07-02T19:18:08.282Z,27.16
2023-07-02T19:20:35.723Z,27.08
2023-07-02T19:23:02.272Z,27.03
2023-07-02T19:25:28.791Z,26.96
2023-07-02T19:27:55.311Z,26.90
2023-07-02T19:30:21.802Z,26.86
2023-07-02T19:32:48.510Z,26.84
2023-07-02T19:35:16.965Z,26.81
2023-07-02T19:37:43.413Z,26.79
2023-07-02T19:40:10.143Z,26.80
2023-07-02T19:42:36.689Z,26.78
2023-07-02T19:45:04.225Z,26.79
2023-07-02T19:47:31.478Z,26.77
2023-07-02T19:49:59.851Z,26.77
2023-07-02T19:52:28.761Z,26.73
2023-07-02T19:55:15.974Z,26.69
2023-07-02T19:57:42.548Z,26.67
2023-07-02T20:00:09.770Z,26.63
2023-07-02T20:02:37.765Z,26.53
2023-07-02T20:05:08.203Z,26.46
2023-07-02T20:07:35.124Z,26.42
2023-07-02T20:10:01.999Z,26.42
2023-07-02T20:12:31.374Z,26.44
2023-07-02T20:15:00.126Z,26.42
2023-07-02T20:17:29.536Z,26.42
2023-07-02T20:19:57.801Z,26.36
2023-07-02T20:22:24.602Z,26.06
2023-07-02T20:24:51.694Z,25.90
2023-07-02T20:27:21.071Z,25.76
2023-07-02T20:29:52.313Z,25.67
2023-07-02T20:32:20.491Z,25.63
2023-07-02T20:34:50.929Z,25.54
2023-07-02T20:37:22.192Z,25.50
2023-07-02T20:39:49.134Z,25.50
2023-07-02T20:42:19.119Z,25.49
2023-07-02T20:44:52.123Z,25.55
2023-07-02T20:47:20.028Z,25.56
2023-07-02T20:49:50.684Z,25.54
2023-07-02T20:52:18.451Z,25.44
2023-07-02T20:54:45.266Z,25.36
2023-07-02T20:57:12.889Z,25.20
2023-07-02T20:59:39.342Z,25.09
2023-07-02T21:02:05.854Z,25.04
2023-07-02T21:04:32.324Z,25.03
2023-07-02T21:06:58.839Z,25.05
2023-07-02T21:09:27.147Z,25.04
2023-07-02T21:11:53.627Z,24.97
2023-07-02T21:14:20.053Z,24.90
2023-07-02T21:16:49.912Z,24.88
2023-07-02T21:19:17.682Z,24.89
2023-07-02T21:21:47.036Z,24.89
2023-07-02T21:24:14.725Z,24.88
2023-07-02T21:26:41.230Z,24.83
2023-07-02T21:29:07.763Z,24.77
2023-07-02T21:31:34.943Z,24.78
2023-07-02T21:34:02.235Z,24.84
2023-07-02T21:36:28.699Z,24.83
2023-07-02T21:38:55.155Z,24.78
2023-07-02T21:41:21.591Z,24.75
2023-07-02T21:43:48.126Z,24.68
2023-07-02T21:46:14.904Z,24.57
2023-07-02T21:48:41.453Z,24.51
2023-07-02T21:51:07.965Z,24.48
2023-07-02T21:53:34.434Z,24.50
2023-07-02T21:56:00.988Z,24.46
2023-07-02T21:58:27.638Z,24.41
2023-07-02T22:00:54.078Z,24.41
2023-07-02T22:03:20.542Z,24.38
2023-07-02T22:05:52.563Z,24.41
2023-07-02T22:08:19.406Z,24.53
2023-07-02T22:10:46.955Z,24.56
2023-07-02T22:13:13.485Z,24.47
2023-07-02T22:15:40.108Z,24.38
2023-07-02T22:18:06.703Z,24.40
2023-07-02T22:20:35.582Z,24.31
2023-07-02T22:23:03.305Z,24.27
2023-07-02T22:25:29.924Z,24.25
2023-07-02T22:27:56.857Z,24.23
2023-07-02T22:30:23.754Z,24.17
2023-07-02T22:32:50.964Z,24.10
2023-07-02T22:35:18.336Z,24.19
2023-07-02T22:37:46.136Z,24.21
2023-07-02T22:40:16.182Z,24.11
2023-07-02T22:42:43.436Z,23.89
2023-07-02T22:45:12.376Z,23.85
2023-07-02T22:47:39.619Z,23.75
2023-07-02T22:50:07.114Z,23.69
2023-07-02T22:52:35.448Z,23.73
2023-07-02T22:55:02.718Z,23.71
2023-07-02T22:57:32.818Z,23.65
2023-07-02T23:00:01.057Z,23.70
2023-07-02T23:02:29.360Z,23.76
2023-07-02T23:04:55.945Z,23.80
2023-07-02T23:07:22.459Z,23.84
2023-07-02T23:09:48.999Z,23.91
2023-07-02T23:12:15.462Z,23.95
2023-07-02T23:14:41.896Z,23.99
2023-07-02T23:17:08.461Z,23.98
2023-07-02T23:19:35.680Z,24.05
2023-07-02T23:22:02.873Z,24.03
2023-07-02T23:24:30.123Z,24.06
2023-07-02T23:26:56.990Z,24.10
2023-07-02T23:29:25.141Z,24.06
2023-07-02T23:31:51.922Z,24.10
2023-07-02T23:34:18.682Z,24.01
2023-07-02T23:36:48.095Z,23.96
2023-07-02T23:39:15.489Z,24.01
2023-07-02T23:41:42.417Z,23.95
2023-07-02T23:44:10.782Z,23.94
2023-07-02T23:46:39.013Z,23.86
2023-07-02T23:49:05.746Z,23.85
2023-07-02T23:51:32.402Z,23.82
2023-07-02T23:53:58.873Z,23.79
2023-07-02T23:56:25.321Z,23.71
2023-07-02T23:58:51.851Z,23.71
